createdAt,value
2018-04-02T00:00:48.604Z,0.00
2018-04-02T00:01:48.588Z,0.00
2018-04-02T00:02:48.556Z,0.00
2018-04-02T00:03:48.537Z,0.00
2018-04-02T00:04:48.516Z,0.00
2018-04-02T00:05:48.496Z,0.00
2018-04-02T00:06:48.476Z,0.00
2018-04-02T00:07:48.453Z,0.00
2018-04-02T00:08:48.475Z,0.00
2018-04-02T00:09:48.422Z,0.00
2018-04-02T00:10:48.391Z,0.00
2018-04-02T00:11:48.369Z,0.00
2018-04-02T00:12:48.351Z,0.00
2018-04-02T00:13:48.339Z,0.00
2018-04-02T00:14:48.312Z,0.00
2018-04-02T00:15:48.289Z,0.00
2018-04-02T00:16:48.277Z,0.00
2018-04-02T00:17:48.247Z,0.00
2018-04-02T00:18:48.228Z,0.00
2018-04-02T00:19:48.215Z,0.00
2018-04-02T00:20:48.190Z,0.00
2018-04-02T00:21:48.169Z,0.00
2018-04-02T00:22:48.144Z,0.00
2018-04-02T00:23:48.128Z,0.00
2018-04-02T00:24:48.105Z,0.00
2018-04-02T00:25:48.081Z,0.00
2018-04-02T00:26:48.066Z,0.00
2018-04-02T00:27:48.045Z,0.00
2018-04-02T00:28:48.038Z,0.00
2018-04-02T00:29:48.014Z,0.00
2018-04-02T00:30:47.979Z,0.00
2018-04-02T00:31:47.961Z,0.00
2018-04-02T00:32:47.938Z,0.00
2018-04-02T00:33:47.925Z,0.00
2018-04-02T00:34:47.900Z,0.00
2018-04-02T00:35:47.888Z,0.00
2018-04-02T00:36:47.860Z,0.00
2018-04-02T00:37:47.839Z,0.00
2018-04-02T00:38:47.819Z,0.00
2018-04-02T00:39:47.795Z,0.00
2018-04-02T00:40:47.775Z,0.00
2018-04-02T00:41:47.760Z,0.00
2018-04-02T00:42:47.733Z,0.00
2018-04-02T00:43:47.716Z,0.00
2018-04-02T00:44:47.691Z,0.00
2018-04-02T00:45:47.670Z,0.00
2018-04-02T00:46:47.657Z,0.00
2018-04-02T00:47:47.637Z,0.00
2018-04-02T00:48:47.645Z,0.00
2018-04-02T00:49:47.591Z,0.00
2018-04-02T00:50:47.575Z,0.00
2018-04-02T00:51:47.553Z,0.00
2018-04-02T00:52:47.526Z,0.00
2018-04-02T00:53:47.506Z,0.00
2018-04-02T00:54:47.486Z,0.00
2018-04-02T00:55:47.465Z,0.00
2018-04-02T00:56:47.445Z,0.00
2018-04-02T00:57:47.429Z,0.00
2018-04-02T00:58:47.405Z,0.00
2018-04-02T00:59:47.382Z,0.00
2018-04-02T01:00:47.364Z,0.00
2018-04-02T01:01:47.343Z,0.00
2018-04-02T01:02:47.322Z,0.00
2018-04-02T01:03:47.304Z,0.00
2018-04-02T01:04:47.283Z,0.00
2018-04-02T01:05:47.265Z,0.00
2018-04-02T01:06:47.244Z,0.00
2018-04-02T01:07:47.221Z,0.00
2018-04-02T01:08:47.197Z,0.00
2018-04-02T01:09:47.181Z,0.00
2018-04-02T01:10:47.155Z,0.00
2018-04-02T01:11:47.140Z,0.00
2018-04-02T01:12:47.120Z,0.00
2018-04-02T01:13:47.098Z,0.00
2018-04-02T01:14:47.076Z,0.00
2018-04-02T01:15:47.063Z,0.00
2018-04-02T01:16:47.036Z,0.00
2018-04-02T01:17:47.024Z,0.00
2018-04-02T01:18:47.001Z,0.00
2018-04-02T01:19:46.974Z,0.00
2018-04-02T01:20:46.956Z,0.00
2018-04-02T01:21:46.932Z,0.00
2018-04-02T01:22:46.910Z,0.00
2018-04-02T01:23:46.897Z,0.00
2018-04-02T01:24:46.870Z,0.00
2018-04-02T01:25:46.852Z,0.00
2018-04-02T01:26:46.830Z,0.00
2018-04-02T01:27:46.808Z,0.00
2018-04-02T01:28:46.788Z,0.00
2018-04-02T01:29:46.766Z,0.00
2018-04-02T01:30:46.748Z,0.00
2018-04-02T01:31:46.726Z,0.00
2018-04-02T01:32:46.704Z,0.00
2018-04-02T01:33:46.690Z,0.00
2018-04-02T01:34:46.665Z,0.00
2018-04-02T01:35:46.649Z,0.00
2018-04-02T01:36:46.620Z,0.00
2018-04-02T01:37:46.602Z,0.00
2018-04-02T01:38:46.578Z,0.00
2018-04-02T01:39:46.562Z,0.00
2018-04-02T01:40:46.541Z,0.00
2018-04-02T01:41:46.523Z,0.00
2018-04-02T01:42:46.497Z,0.00
2018-04-02T01:43:46.480Z,0.00
2018-04-02T01:44:46.456Z,0.00
2018-04-02T01:45:46.435Z,0.00
2018-04-02T01:46:46.416Z,0.00
2018-04-02T01:47:46.404Z,0.00
2018-04-02T01:48:46.372Z,0.00
2018-04-02T01:49:46.357Z,0.00
2018-04-02T01:50:46.334Z,0.00
2018-04-02T01:51:46.310Z,0.00
2018-04-02T01:52:46.292Z,0.00
2018-04-02T01:53:46.273Z,0.00
2018-04-02T01:54:46.245Z,0.00
2018-04-02T01:55:46.225Z,0.00
2018-04-02T01:56:46.205Z,0.00
2018-04-02T01:57:46.186Z,0.00
2018-04-02T01:58:46.162Z,0.00
2018-04-02T01:59:46.145Z,0.00
2018-04-02T02:00:46.123Z,0.00
2018-04-02T02:01:46.106Z,0.00
2018-04-02T02:02:46.090Z,0.00
2018-04-02T02:03:46.061Z,0.00
2018-04-02T02:04:46.041Z,0.00
2018-04-02T02:05:46.020Z,0.00
2018-04-02T02:06:46.000Z,0.00
2018-04-02T02:07:45.978Z,0.00
2018-04-02T02:08:45.959Z,0.00
2018-04-02T02:09:45.941Z,0.00
2018-04-02T02:10:45.915Z,0.00
2018-04-02T02:11:45.897Z,0.00
2018-04-02T02:12:45.875Z,0.00
2018-04-02T02:13:45.865Z,0.00
2018-04-02T02:14:45.833Z,0.00
2018-04-02T02:15:45.820Z,0.00
2018-04-02T02:16:45.794Z,0.00
2018-04-02T02:17:45.770Z,0.00
2018-04-02T02:18:45.754Z,0.00
2018-04-02T02:19:45.731Z,0.00
2018-04-02T02:20:45.719Z,0.00
2018-04-02T02:21:45.690Z,0.00
2018-04-02T02:22:45.680Z,0.00
2018-04-02T02:23:45.646Z,0.00
2018-04-02T02:24:45.625Z,0.00
2018-04-02T02:25:45.605Z,0.00
2018-04-02T02:26:45.585Z,0.00
2018-04-02T02:27:45.572Z,0.00
2018-04-02T02:28:45.553Z,0.00
2018-04-02T02:29:45.524Z,0.00
2018-04-02T02:30:45.515Z,0.00
2018-04-02T02:31:45.480Z,0.00
2018-04-02T02:32:45.461Z,0.00
2018-04-02T02:33:45.447Z,0.00
2018-04-02T02:34:45.422Z,0.00
2018-04-02T02:35:45.399Z,0.00
2018-04-02T02:36:45.381Z,0.00
2018-04-02T02:37:45.358Z,0.00
2018-04-02T02:38:45.335Z,0.00
2018-04-02T02:39:45.315Z,0.00
2018-04-02T02:40:45.295Z,0.00
2018-04-02T02:41:45.276Z,0.00
2018-04-02T02:42:45.256Z,0.00
2018-04-02T02:43:45.241Z,0.00
2018-04-02T02:44:45.219Z,0.00
2018-04-02T02:45:45.192Z,0.00
2018-04-02T02:46:45.176Z,0.00
2018-04-02T02:47:45.154Z,0.00
2018-04-02T02:48:45.128Z,0.00
2018-04-02T02:49:45.112Z,0.00
2018-04-02T02:50:45.087Z,0.00
2018-04-02T02:51:45.070Z,0.00
2018-04-02T02:52:45.046Z,0.00
2018-04-02T02:53:45.026Z,0.00
2018-04-02T02:54:45.005Z,0.00
2018-04-02T02:55:44.991Z,0.00
2018-04-02T02:56:44.962Z,0.00
2018-04-02T02:57:44.948Z,0.00
2018-04-02T02:58:44.923Z,0.00
2018-04-02T02:59:44.899Z,0.00
2018-04-02T03:00:44.883Z,0.00
2018-04-02T03:01:44.860Z,0.00
2018-04-02T03:02:44.837Z,0.00
2018-04-02T03:03:44.816Z,0.00
2018-04-02T03:04:44.797Z,0.00
2018-04-02T03:05:44.781Z,0.00
2018-04-02T03:06:44.755Z,0.00
2018-04-02T03:07:44.733Z,0.00
2018-04-02T03:08:44.717Z,0.00
2018-04-02T03:09:44.707Z,0.00
2018-04-02T03:10:44.682Z,0.00
2018-04-02T03:11:44.653Z,0.00
2018-04-02T03:12:44.633Z,0.00
2018-04-02T03:13:44.608Z,0.00
2018-04-02T03:14:44.599Z,0.00
2018-04-02T03:15:44.565Z,0.00
2018-04-02T03:16:44.545Z,0.00
2018-04-02T03:17:44.528Z,0.00
2018-04-02T03:18:44.505Z,0.00
2018-04-02T03:19:44.486Z,0.00
2018-04-02T03:20:44.464Z,0.00
2018-04-02T03:21:44.441Z,0.00
2018-04-02T03:22:44.424Z,0.00
2018-04-02T03:23:44.402Z,0.00
2018-04-02T03:24:44.378Z,0.00
2018-04-02T03:25:44.369Z,0.00
2018-04-02T03:26:44.345Z,0.00
2018-04-02T03:27:44.314Z,0.00
2018-04-02T03:28:44.303Z,0.00
2018-04-02T03:29:44.277Z,0.00
2018-04-02T03:30:44.257Z,0.00
2018-04-02T03:31:44.236Z,0.00
2018-04-02T03:32:44.216Z,0.00
2018-04-02T03:33:44.193Z,0.00
2018-04-02T03:34:44.171Z,0.00
2018-04-02T03:35:44.155Z,0.00
2018-04-02T03:36:44.130Z,0.00
2018-04-02T03:37:44.108Z,0.00
2018-04-02T03:38:44.093Z,0.00
2018-04-02T03:39:44.065Z,0.00
2018-04-02T03:40:44.047Z,0.00
2018-04-02T03:41:44.025Z,0.00
2018-04-02T03:42:44.004Z,0.00
2018-04-02T03:43:43.981Z,0.00
2018-04-02T03:44:43.969Z,0.00
2018-04-02T03:45:43.946Z,0.00
2018-04-02T03:46:43.925Z,0.00
2018-04-02T03:47:43.901Z,0.00
2018-04-02T03:48:43.885Z,0.00
2018-04-02T03:49:43.864Z,0.00
2018-04-02T03:50:43.838Z,0.00
2018-04-02T03:51:43.813Z,0.00
2018-04-02T03:52:43.796Z,0.00
2018-04-02T03:53:43.773Z,0.00
2018-04-02T03:54:43.805Z,0.00
2018-04-02T03:55:43.735Z,0.00
2018-04-02T03:56:43.715Z,0.00
2018-04-02T03:57:43.695Z,0.00
2018-04-02T03:58:43.672Z,0.00
2018-04-02T03:59:43.656Z,0.00
2018-04-02T04:00:43.632Z,0.00
2018-04-02T04:01:43.608Z,0.00
2018-04-02T04:02:43.586Z,0.00
2018-04-02T04:03:43.568Z,0.00
2018-04-02T04:04:43.549Z,0.00
2018-04-02T04:05:43.524Z,0.00
2018-04-02T04:06:43.506Z,0.00
2018-04-02T04:07:43.485Z,0.00
2018-04-02T04:08:43.466Z,0.00
2018-04-02T04:09:43.444Z,0.00
2018-04-02T04:10:43.425Z,0.00
2018-04-02T04:11:43.403Z,0.00
2018-04-02T04:12:43.386Z,0.00
2018-04-02T04:13:43.361Z,0.00
2018-04-02T04:14:43.338Z,0.00
2018-04-02T04:15:43.315Z,0.00
2018-04-02T04:16:43.298Z,0.00
2018-04-02T04:17:43.274Z,0.00
2018-04-02T04:18:43.266Z,0.00
2018-04-02T04:19:43.235Z,0.00
2018-04-02T04:20:43.217Z,0.00
2018-04-02T04:21:43.194Z,0.00
2018-04-02T04:22:43.174Z,0.00
2018-04-02T04:23:43.158Z,0.00
2018-04-02T04:24:43.134Z,0.00
2018-04-02T04:25:43.113Z,0.00
2018-04-02T04:26:43.089Z,0.00
2018-04-02T04:27:43.071Z,0.00
2018-04-02T04:28:43.048Z,0.00
2018-04-02T04:29:43.025Z,0.00
2018-04-02T04:30:43.004Z,0.00
2018-04-02T04:31:42.984Z,0.00
2018-04-02T04:32:42.965Z,0.00
2018-04-02T04:33:42.944Z,0.00
2018-04-02T04:34:42.925Z,0.00
2018-04-02T04:35:42.903Z,0.00
2018-04-02T04:36:42.880Z,0.00
2018-04-02T04:37:42.859Z,0.00
2018-04-02T04:38:42.839Z,0.00
2018-04-02T04:39:42.816Z,0.00
2018-04-02T04:40:42.800Z,0.00
2018-04-02T04:41:42.774Z,0.00
2018-04-02T04:42:42.757Z,0.00
2018-04-02T04:43:42.740Z,0.00
2018-04-02T04:44:42.716Z,0.00
2018-04-02T04:45:42.741Z,0.00
2018-04-02T04:46:42.673Z,4.00
2018-04-02T04:47:42.653Z,0.00
2018-04-02T04:48:42.628Z,0.00
2018-04-02T04:49:42.667Z,0.00
2018-04-02T04:50:42.587Z,0.00
2018-04-02T04:51:42.565Z,0.00
2018-04-02T04:52:42.545Z,4.00
2018-04-02T04:53:42.524Z,0.00
2018-04-02T04:54:42.503Z,4.00
2018-04-02T04:55:42.484Z,4.00
2018-04-02T04:56:42.462Z,4.00
2018-04-02T04:57:42.444Z,4.00
2018-04-02T04:58:42.420Z,4.00
2018-04-02T04:59:42.404Z,4.00
2018-04-02T05:00:42.383Z,4.00
2018-04-02T05:01:42.363Z,4.00
2018-04-02T05:02:42.337Z,4.00
2018-04-02T05:03:42.329Z,8.00
2018-04-02T05:04:42.296Z,8.00
2018-04-02T05:05:42.280Z,8.00
2018-04-02T05:06:42.258Z,8.00
2018-04-02T05:07:42.235Z,12.00
2018-04-02T05:08:42.214Z,16.00
2018-04-02T05:09:42.190Z,16.00
2018-04-02T05:10:42.174Z,16.00
2018-04-02T05:11:42.152Z,16.00
2018-04-02T05:12:42.129Z,16.00
2018-04-02T05:13:42.109Z,20.00
2018-04-02T05:14:42.090Z,24.00
2018-04-02T05:15:42.064Z,28.00
2018-04-02T05:16:42.048Z,28.00
2018-04-02T05:17:42.070Z,28.00
2018-04-02T05:18:42.007Z,28.00
2018-04-02T05:19:41.994Z,28.00
2018-04-02T05:20:41.960Z,32.00
2018-04-02T05:21:41.950Z,32.00
2018-04-02T05:22:41.922Z,32.00
2018-04-02T05:23:41.901Z,36.00
2018-04-02T05:24:41.883Z,32.00
2018-04-02T05:25:41.858Z,36.00
2018-04-02T05:26:41.834Z,40.00
2018-04-02T05:27:41.815Z,40.00
2018-04-02T05:28:41.797Z,44.00
2018-04-02T05:29:41.838Z,44.00
2018-04-02T05:30:41.767Z,48.00
2018-04-02T05:31:41.731Z,52.00
2018-04-02T05:32:41.716Z,56.00
2018-04-02T05:33:41.692Z,60.00
2018-04-02T05:34:41.676Z,64.00
2018-04-02T05:35:41.653Z,68.00
2018-04-02T05:36:41.629Z,72.00
2018-04-02T05:37:41.605Z,76.00
2018-04-02T05:38:41.586Z,76.00
2018-04-02T05:39:41.584Z,80.00
2018-04-02T05:40:41.544Z,80.00
2018-04-02T05:41:41.524Z,76.00
2018-04-02T05:42:41.503Z,76.00
2018-04-02T05:43:41.484Z,80.00
2018-04-02T05:44:41.469Z,80.00
2018-04-02T05:45:41.442Z,80.00
2018-04-02T05:46:41.423Z,80.00
2018-04-02T05:47:41.398Z,84.00
2018-04-02T05:48:41.379Z,92.00
2018-04-02T05:49:41.360Z,100.00
2018-04-02T05:50:41.337Z,104.00
2018-04-02T05:51:41.315Z,112.00
2018-04-02T05:52:41.295Z,112.00
2018-04-02T05:53:41.274Z,124.00
2018-04-02T05:54:41.265Z,132.00
2018-04-02T05:55:41.235Z,144.00
2018-04-02T05:56:41.226Z,160.00
2018-04-02T05:57:41.195Z,164.00
2018-04-02T05:58:41.169Z,168.00
2018-04-02T05:59:41.198Z,172.00
2018-04-02T06:00:41.130Z,172.00
2018-04-02T06:01:41.107Z,176.00
2018-04-02T06:02:41.086Z,172.00
2018-04-02T06:03:41.068Z,180.00
2018-04-02T06:04:41.046Z,188.00
2018-04-02T06:05:41.025Z,196.00
2018-04-02T06:06:41.003Z,200.00
2018-04-02T06:07:40.990Z,208.00
2018-04-02T06:08:40.968Z,208.00
2018-04-02T06:09:40.944Z,212.00
2018-04-02T06:10:40.926Z,208.00
2018-04-02T06:11:40.899Z,208.00
2018-04-02T06:12:40.885Z,212.00
2018-04-02T06:13:40.860Z,212.00
2018-04-02T06:14:40.836Z,208.00
2018-04-02T06:15:40.817Z,208.00
2018-04-02T06:16:40.809Z,212.00
2018-04-02T06:17:40.774Z,216.00
2018-04-02T06:18:40.754Z,224.00
2018-04-02T06:19:40.734Z,232.00
2018-04-02T06:20:40.717Z,244.00
2018-04-02T06:21:40.699Z,260.00
2018-04-02T06:22:40.678Z,284.00
2018-04-02T06:23:40.653Z,304.00
2018-04-02T06:24:40.633Z,316.00
2018-04-02T06:25:40.615Z,328.00
2018-04-02T06:26:40.592Z,332.00
2018-04-02T06:27:40.567Z,328.00
2018-04-02T06:28:40.547Z,320.00
2018-04-02T06:29:40.526Z,324.00
2018-04-02T06:30:40.504Z,344.00
2018-04-02T06:31:40.493Z,352.00
2018-04-02T06:32:40.465Z,352.00
2018-04-02T06:33:40.446Z,348.00
2018-04-02T06:34:40.433Z,340.00
2018-04-02T06:35:40.408Z,336.00
2018-04-02T06:36:40.385Z,336.00
2018-04-02T06:37:40.372Z,348.00
2018-04-02T06:38:40.342Z,364.00
2018-04-02T06:39:40.330Z,392.00
2018-04-02T06:40:40.304Z,420.00
2018-04-02T06:41:40.282Z,436.00
2018-04-02T06:42:40.259Z,424.00
2018-04-02T06:43:40.235Z,396.00
2018-04-02T06:44:40.215Z,368.00
2018-04-02T06:45:40.203Z,348.00
2018-04-02T06:46:40.175Z,332.00
2018-04-02T06:47:40.154Z,324.00
2018-04-02T06:48:40.132Z,316.00
2018-04-02T06:49:40.121Z,316.00
2018-04-02T06:50:40.092Z,316.00
2018-04-02T06:51:40.078Z,328.00
2018-04-02T06:52:40.065Z,340.00
2018-04-02T06:53:40.030Z,348.00
2018-04-02T06:54:40.014Z,352.00
2018-04-02T06:55:39.989Z,368.00
2018-04-02T06:56:39.974Z,380.00
2018-04-02T06:57:39.950Z,392.00
2018-04-02T06:58:39.926Z,408.00
2018-04-02T06:59:39.905Z,420.00
2018-04-02T07:00:39.889Z,428.00
2018-04-02T07:01:39.864Z,432.00
2018-04-02T07:02:39.843Z,436.00
2018-04-02T07:03:39.830Z,436.00
2018-04-02T07:04:39.807Z,440.00
2018-04-02T07:05:39.788Z,448.00
2018-04-02T07:06:39.766Z,456.00
2018-04-02T07:07:39.755Z,460.00
2018-04-02T07:08:39.723Z,468.00
2018-04-02T07:09:39.713Z,472.00
2018-04-02T07:10:39.682Z,484.00
2018-04-02T07:11:39.663Z,488.00
2018-04-02T07:12:39.645Z,492.00
2018-04-02T07:13:39.631Z,500.00
2018-04-02T07:14:39.604Z,500.00
2018-04-02T07:15:39.579Z,492.00
2018-04-02T07:16:39.564Z,472.00
2018-04-02T07:17:39.538Z,452.00
2018-04-02T07:18:39.522Z,428.00
2018-04-02T07:19:39.496Z,404.00
2018-04-02T07:20:39.476Z,384.00
2018-04-02T07:21:39.456Z,364.00
2018-04-02T07:22:39.433Z,356.00
2018-04-02T07:23:39.412Z,352.00
2018-04-02T07:24:39.395Z,364.00
2018-04-02T07:25:39.376Z,384.00
2018-04-02T07:26:39.359Z,416.00
2018-04-02T07:27:39.333Z,456.00
2018-04-02T07:28:39.316Z,504.00
2018-04-02T07:29:39.296Z,528.00
2018-04-02T07:30:39.276Z,560.00
2018-04-02T07:31:39.253Z,596.00
2018-04-02T07:32:39.232Z,544.00
2018-04-02T07:33:39.217Z,516.00
2018-04-02T07:34:39.191Z,480.00
2018-04-02T07:35:39.175Z,496.00
2018-04-02T07:36:39.152Z,532.00
2018-04-02T07:37:39.126Z,628.00
2018-04-02T07:38:39.115Z,596.00
2018-04-02T07:39:39.088Z,692.00
2018-04-02T07:40:39.066Z,768.00
2018-04-02T07:41:39.044Z,700.00
2018-04-02T07:42:39.024Z,736.00
2018-04-02T07:43:39.006Z,744.00
2018-04-02T07:44:38.984Z,796.00
2018-04-02T07:45:38.965Z,768.00
2018-04-02T07:46:38.949Z,804.00
2018-04-02T07:47:38.921Z,848.00
2018-04-02T07:48:38.910Z,980.00
2018-04-02T07:49:38.889Z,964.00
2018-04-02T07:50:38.900Z,924.00
2018-04-02T07:51:38.844Z,828.00
2018-04-02T07:52:38.819Z,844.00
2018-04-02T07:53:38.803Z,872.00
2018-04-02T07:54:38.781Z,848.00
2018-04-02T07:55:38.773Z,784.00
2018-04-02T07:56:38.737Z,736.00
2018-04-02T07:57:38.727Z,756.00
2018-04-02T07:58:38.702Z,752.00
2018-04-02T07:59:38.681Z,772.00
2018-04-02T08:00:38.659Z,796.00
2018-04-02T08:01:38.639Z,808.00
2018-04-02T08:02:38.621Z,812.00
2018-04-02T08:03:38.596Z,772.00
2018-04-02T08:04:38.576Z,796.00
2018-04-02T08:05:38.560Z,1044.00
2018-04-02T08:06:38.536Z,1184.00
2018-04-02T08:07:38.515Z,1060.00
2018-04-02T08:08:38.513Z,948.00
2018-04-02T08:09:38.484Z,1080.00
2018-04-02T08:10:38.453Z,1000.00
2018-04-02T08:11:38.440Z,1136.00
2018-04-02T08:12:38.417Z,1080.00
2018-04-02T08:13:38.399Z,1500.00
2018-04-02T08:14:38.376Z,1464.00
2018-04-02T08:15:38.357Z,1248.00
2018-04-02T08:16:38.341Z,956.00
2018-04-02T08:17:38.317Z,952.00
2018-04-02T08:18:38.293Z,952.00
2018-04-02T08:19:38.272Z,1048.00
2018-04-02T08:20:38.254Z,1088.00
2018-04-02T08:21:38.232Z,1116.00
2018-04-02T08:22:38.219Z,1072.00
2018-04-02T08:23:38.194Z,1088.00
2018-04-02T08:24:38.169Z,1136.00
2018-04-02T08:25:38.159Z,1244.00
2018-04-02T08:26:38.130Z,908.00
2018-04-02T08:27:38.111Z,888.00
2018-04-02T08:28:38.098Z,912.00
2018-04-02T08:29:38.074Z,936.00
2018-04-02T08:30:38.052Z,1036.00
2018-04-02T08:31:38.027Z,1052.00
2018-04-02T08:32:38.068Z,1028.00
2018-04-02T08:33:37.986Z,1272.00
2018-04-02T08:34:37.977Z,1300.00
2018-04-02T08:35:37.950Z,1456.00
2018-04-02T08:36:37.927Z,1092.00
2018-04-02T08:37:37.909Z,1148.00
2018-04-02T08:38:37.900Z,1120.00
2018-04-02T08:39:37.866Z,1052.00
2018-04-02T08:40:37.849Z,1200.00
2018-04-02T08:41:37.825Z,1212.00
2018-04-02T08:42:37.804Z,1400.00
2018-04-02T08:43:37.784Z,1312.00
2018-04-02T08:44:37.766Z,1452.00
2018-04-02T08:45:37.756Z,1296.00
2018-04-02T08:46:37.725Z,1288.00
2018-04-02T08:47:37.716Z,1244.00
2018-04-02T08:48:37.686Z,1096.00
2018-04-02T08:49:37.669Z,1040.00
2018-04-02T08:50:37.646Z,1032.00
2018-04-02T08:51:37.627Z,1056.00
2018-04-02T08:52:37.611Z,1064.00
2018-04-02T08:53:37.590Z,1056.00
2018-04-02T08:54:37.584Z,1032.00
2018-04-02T08:55:37.555Z,1056.00
2018-04-02T08:56:37.532Z,1060.00
2018-04-02T08:57:37.512Z,1048.00
2018-04-02T08:58:37.492Z,1076.00
2018-04-02T08:59:37.467Z,1180.00
2018-04-02T09:00:37.498Z,1216.00
2018-04-02T09:01:37.431Z,1176.00
2018-04-02T09:02:37.410Z,1124.00
2018-04-02T09:03:37.401Z,1040.00
2018-04-02T09:04:37.371Z,992.00
2018-04-02T09:05:37.366Z,960.00
2018-04-02T09:06:37.333Z,940.00
2018-04-02T09:07:37.313Z,956.00
2018-04-02T09:08:37.293Z,1012.00
2018-04-02T09:09:37.289Z,1100.00
2018-04-02T09:10:37.258Z,1188.00
2018-04-02T09:11:37.236Z,1260.00
2018-04-02T09:12:37.213Z,1368.00
2018-04-02T09:13:37.200Z,1276.00
2018-04-02T09:14:37.180Z,1224.00
2018-04-02T09:15:37.159Z,1248.00
2018-04-02T09:16:37.143Z,1348.00
2018-04-02T09:17:37.123Z,1400.00
2018-04-02T09:18:37.093Z,1576.00
2018-04-02T09:19:37.076Z,1740.00
2018-04-02T09:20:37.053Z,1812.00
2018-04-02T09:21:37.039Z,1524.00
2018-04-02T09:22:37.026Z,1196.00
2018-04-02T09:23:37.001Z,1152.00
2018-04-02T09:24:36.989Z,1112.00
2018-04-02T09:25:36.968Z,1128.00
2018-04-02T09:26:36.936Z,1172.00
2018-04-02T09:27:36.935Z,1068.00
2018-04-02T09:28:36.903Z,1012.00
2018-04-02T09:29:36.880Z,1024.00
2018-04-02T09:30:36.863Z,1012.00
2018-04-02T09:31:36.842Z,1080.00
2018-04-02T09:32:36.827Z,1188.00
2018-04-02T09:33:36.809Z,1160.00
2018-04-02T09:34:36.784Z,1128.00
2018-04-02T09:35:36.766Z,1172.00
2018-04-02T09:36:36.743Z,1100.00
2018-04-02T09:37:36.722Z,1064.00
2018-04-02T09:38:36.703Z,1188.00
2018-04-02T09:39:36.682Z,1260.00
2018-04-02T09:40:36.666Z,1384.00
2018-04-02T09:41:36.648Z,1324.00
2018-04-02T09:42:36.626Z,1208.00
2018-04-02T09:43:36.606Z,1196.00
2018-04-02T09:44:36.595Z,1220.00
2018-04-02T09:45:36.566Z,1224.00
2018-04-02T09:46:36.555Z,1156.00
2018-04-02T09:47:36.536Z,1180.00
2018-04-02T09:48:36.515Z,1212.00
2018-04-02T09:49:36.495Z,1248.00
2018-04-02T09:50:36.468Z,1272.00
2018-04-02T09:51:36.452Z,1276.00
2018-04-02T09:52:36.436Z,1264.00
2018-04-02T09:53:36.413Z,1212.00
2018-04-02T09:54:36.391Z,1104.00
2018-04-02T09:55:36.386Z,1040.00
2018-04-02T09:56:36.360Z,1000.00
2018-04-02T09:57:36.337Z,984.00
2018-04-02T09:58:36.328Z,952.00
2018-04-02T09:59:36.296Z,904.00
2018-04-02T10:00:36.274Z,896.00
2018-04-02T10:01:36.256Z,896.00
2018-04-02T10:02:36.239Z,908.00
2018-04-02T10:03:36.216Z,944.00
2018-04-02T10:04:36.382Z,1060.00
2018-04-02T10:05:36.192Z,1196.00
2018-04-02T10:06:36.164Z,1412.00
2018-04-02T10:07:36.145Z,1440.00
2018-04-02T10:08:36.121Z,1480.00
2018-04-02T10:09:36.107Z,1360.00
2018-04-02T10:10:36.107Z,1316.00
2018-04-02T10:11:36.068Z,1504.00
2018-04-02T10:12:36.046Z,1428.00
2018-04-02T10:13:36.030Z,1300.00
2018-04-02T10:14:36.009Z,1328.00
2018-04-02T10:15:36.045Z,1364.00
2018-04-02T10:16:35.968Z,1340.00
2018-04-02T10:17:35.956Z,1440.00
2018-04-02T10:18:35.925Z,1592.00
2018-04-02T10:19:35.908Z,2016.00
2018-04-02T10:20:35.897Z,2016.00
2018-04-02T10:21:35.872Z,1592.00
2018-04-02T10:22:35.854Z,1356.00
2018-04-02T10:23:35.837Z,1164.00
2018-04-02T10:24:35.827Z,1056.00
2018-04-02T10:25:35.808Z,1016.00
2018-04-02T10:26:35.785Z,1004.00
2018-04-02T10:27:35.757Z,984.00
2018-04-02T10:28:35.736Z,960.00
2018-04-02T10:29:35.738Z,928.00
2018-04-02T10:30:35.696Z,880.00
2018-04-02T10:31:35.680Z,884.00
2018-04-02T10:32:35.659Z,924.00
2018-04-02T10:33:35.640Z,1008.00
2018-04-02T10:34:35.619Z,1108.00
2018-04-02T10:35:35.606Z,1148.00
2018-04-02T10:36:35.583Z,1096.00
2018-04-02T10:37:35.562Z,1096.00
2018-04-02T10:38:35.543Z,1124.00
2018-04-02T10:39:35.532Z,1116.00
2018-04-02T10:40:35.513Z,1116.00
2018-04-02T10:41:35.518Z,1108.00
2018-04-02T10:42:35.469Z,1096.00
2018-04-02T10:43:35.446Z,1064.00
2018-04-02T10:44:35.424Z,1276.00
2018-04-02T10:45:35.426Z,1232.00
2018-04-02T10:46:35.392Z,1172.00
2018-04-02T10:47:35.376Z,1076.00
2018-04-02T10:48:35.383Z,1088.00
2018-04-02T10:49:35.332Z,1060.00
2018-04-02T10:50:35.312Z,1152.00
2018-04-02T10:51:35.297Z,1272.00
2018-04-02T10:52:35.273Z,1460.00
2018-04-02T10:53:35.257Z,1492.00
2018-04-02T10:54:35.236Z,1496.00
2018-04-02T10:55:35.219Z,1580.00
2018-04-02T10:56:35.204Z,1496.00
2018-04-02T10:57:35.196Z,1648.00
2018-04-02T10:58:35.163Z,1640.00
2018-04-02T10:59:35.150Z,1852.00
2018-04-02T11:00:35.149Z,1896.00
2018-04-02T11:01:35.110Z,1584.00
2018-04-02T11:02:35.093Z,1740.00
2018-04-02T11:03:35.080Z,1152.00
2018-04-02T11:04:35.052Z,1132.00
2018-04-02T11:05:35.044Z,908.00
2018-04-02T11:06:35.014Z,860.00
2018-04-02T11:07:35.001Z,768.00
2018-04-02T11:08:34.977Z,696.00
2018-04-02T11:09:34.954Z,688.00
2018-04-02T11:10:34.944Z,676.00
2018-04-02T11:11:34.917Z,672.00
2018-04-02T11:12:34.920Z,700.00
2018-04-02T11:13:34.876Z,720.00
2018-04-02T11:14:34.858Z,696.00
2018-04-02T11:15:34.839Z,692.00
2018-04-02T11:16:34.824Z,712.00
2018-04-02T11:17:34.802Z,700.00
2018-04-02T11:18:34.785Z,668.00
2018-04-02T11:19:34.766Z,624.00
2018-04-02T11:20:34.746Z,628.00
2018-04-02T11:21:34.728Z,672.00
2018-04-02T11:22:34.751Z,784.00
2018-04-02T11:23:34.686Z,940.00
2018-04-02T11:24:34.669Z,1188.00
2018-04-02T11:25:34.650Z,1236.00
2018-04-02T11:26:34.646Z,1164.00
2018-04-02T11:27:34.608Z,1096.00
2018-04-02T11:28:34.593Z,1032.00
2018-04-02T11:29:34.579Z,972.00
2018-04-02T11:30:34.552Z,952.00
2018-04-02T11:31:34.534Z,872.00
2018-04-02T11:32:34.518Z,872.00
2018-04-02T11:33:34.498Z,916.00
2018-04-02T11:34:34.476Z,916.00
2018-04-02T11:35:34.458Z,872.00
2018-04-02T11:36:34.444Z,788.00
2018-04-02T11:37:34.424Z,732.00
2018-04-02T11:38:34.404Z,744.00
2018-04-02T11:39:34.386Z,804.00
2018-04-02T11:40:34.368Z,864.00
2018-04-02T11:41:34.363Z,928.00
2018-04-02T11:42:34.336Z,1024.00
2018-04-02T11:43:34.313Z,1088.00
2018-04-02T11:44:34.294Z,1112.00
2018-04-02T11:45:34.281Z,1120.00
2018-04-02T11:46:34.257Z,1144.00
2018-04-02T11:47:34.236Z,1196.00
2018-04-02T11:48:34.220Z,1220.00
2018-04-02T11:49:34.196Z,1160.00
2018-04-02T11:50:34.185Z,1056.00
2018-04-02T11:51:34.166Z,1048.00
2018-04-02T11:52:34.142Z,1028.00
2018-04-02T11:53:34.126Z,992.00
2018-04-02T11:54:34.121Z,932.00
2018-04-02T11:55:34.095Z,864.00
2018-04-02T11:56:34.074Z,788.00
2018-04-02T11:57:34.055Z,728.00
2018-04-02T11:58:34.045Z,716.00
2018-04-02T11:59:34.015Z,728.00
2018-04-02T12:00:33.995Z,740.00
2018-04-02T12:01:33.977Z,740.00
2018-04-02T12:02:33.961Z,720.00
2018-04-02T12:03:33.936Z,712.00
2018-04-02T12:04:33.923Z,732.00
2018-04-02T12:05:33.914Z,768.00
2018-04-02T12:06:33.879Z,828.00
2018-04-02T12:07:33.863Z,892.00
2018-04-02T12:08:33.857Z,944.00
2018-04-02T12:09:33.828Z,976.00
2018-04-02T12:10:33.809Z,960.00
2018-04-02T12:11:33.799Z,940.00
2018-04-02T12:12:33.775Z,952.00
2018-04-02T12:13:33.765Z,968.00
2018-04-02T12:14:33.734Z,964.00
2018-04-02T12:15:33.714Z,924.00
2018-04-02T12:16:33.697Z,884.00
2018-04-02T12:17:33.684Z,856.00
2018-04-02T12:18:33.663Z,836.00
2018-04-02T12:19:33.642Z,832.00
2018-04-02T12:20:33.624Z,844.00
2018-04-02T12:21:33.606Z,852.00
2018-04-02T12:22:33.585Z,848.00
2018-04-02T12:23:33.567Z,856.00
2018-04-02T12:24:33.560Z,872.00
2018-04-02T12:25:33.536Z,896.00
2018-04-02T12:26:33.516Z,912.00
2018-04-02T12:27:34.117Z,928.00
2018-04-02T12:28:33.477Z,948.00
2018-04-02T12:29:33.454Z,984.00
2018-04-02T12:30:33.438Z,1004.00
2018-04-02T12:31:33.418Z,1044.00
2018-04-02T12:32:33.400Z,1124.00
2018-04-02T12:33:33.398Z,1232.00
2018-04-02T12:34:33.369Z,1264.00
2018-04-02T12:35:33.348Z,1288.00
2018-04-02T12:36:33.325Z,1312.00
2018-04-02T12:37:33.310Z,1300.00
2018-04-02T12:38:33.307Z,1300.00
2018-04-02T12:39:33.273Z,1252.00
2018-04-02T12:40:33.249Z,1252.00
2018-04-02T12:41:33.233Z,1236.00
2018-04-02T12:42:33.214Z,1164.00
2018-04-02T12:43:33.205Z,1088.00